createdAt,value
2022-12-28T00:01:13.016Z,99599.00
2022-12-28T00:03:39.741Z,99590.69
2022-12-28T00:06:07.294Z,99582.91
2022-12-28T00:08:34.034Z,99580.88
2022-12-28T00:11:08.900Z,99576.88
2022-12-28T00:13:37.362Z,99573.97
2022-12-28T00:16:13.945Z,99570.56
2022-12-28T00:18:40.772Z,99560.88
2022-12-28T00:21:07.400Z,99561.72
2022-12-28T00:23:34.135Z,99551.69
2022-12-28T00:26:08.797Z,99542.88
2022-12-28T00:28:35.565Z,99537.84
2022-12-28T00:31:02.432Z,99541.34
2022-12-28T00:33:29.167Z,99539.69
2022-12-28T00:35:57.185Z,99526.59
2022-12-28T00:38:24.286Z,99525.75
2022-12-28T00:40:50.997Z,99520.56
2022-12-28T00:43:17.816Z,99510.81
2022-12-28T00:45:45.755Z,99508.31
2022-12-28T00:48:12.786Z,99495.22
2022-12-28T00:50:40.010Z,99492.53
2022-12-28T00:53:07.230Z,99485.25
2022-12-28T00:55:34.799Z,99475.97
2022-12-28T00:58:02.484Z,99470.00
2022-12-28T01:00:29.656Z,99469.28
2022-12-28T01:02:56.973Z,99464.63
2022-12-28T01:05:24.140Z,99461.47
2022-12-28T01:07:51.241Z,99457.47
2022-12-28T01:10:18.326Z,99454.88
2022-12-28T01:12:45.318Z,99448.47
2022-12-28T01:15:13.407Z,99445.31
2022-12-28T01:17:40.299Z,99439.38
2022-12-28T01:20:08.326Z,99442.72
2022-12-28T01:22:35.051Z,99442.25
2022-12-28T01:25:01.773Z,99440.75
2022-12-28T01:27:28.466Z,99432.13
2022-12-28T01:29:55.080Z,99426.19
2022-12-28T01:32:21.932Z,99434.38
2022-12-28T01:34:48.477Z,99425.81
2022-12-28T01:37:15.084Z,99431.47
2022-12-28T01:39:41.775Z,99420.78
2022-12-28T01:42:16.662Z,99420.41
2022-12-28T01:44:46.191Z,99417.34
2022-12-28T01:47:22.537Z,99408.41
2022-12-28T01:50:10.364Z,99399.28
2022-12-28T01:52:40.868Z,99396.78
2022-12-28T01:55:15.849Z,99386.38
2022-12-28T01:57:47.618Z,99381.81
2022-12-28T02:00:16.173Z,99379.50
2022-12-28T02:02:46.835Z,99372.25
2022-12-28T02:05:14.382Z,99364.47
2022-12-28T02:07:47.761Z,99362.06
2022-12-28T02:10:41.114Z,99367.94
2022-12-28T02:13:03.733Z,99348.16
2022-12-28T02:15:30.519Z,99343.47
2022-12-28T02:17:57.931Z,99346.50
2022-12-28T02:20:34.983Z,99340.66
2022-12-28T02:23:28.035Z,99326.41
2022-12-28T02:26:39.923Z,99328.63
2022-12-28T02:29:25.925Z,99321.75
2022-12-28T02:32:06.359Z,99309.97
2022-12-28T02:34:41.467Z,99306.97
2022-12-28T02:37:17.655Z,99314.25
2022-12-28T02:39:53.299Z,99320.94
2022-12-28T02:42:21.208Z,99323.75
2022-12-28T02:45:06.678Z,99309.91
2022-12-28T02:47:52.008Z,99307.31
2022-12-28T02:50:18.981Z,99312.19
2022-12-28T02:53:30.606Z,99306.13
2022-12-28T02:56:10.900Z,99295.31
2022-12-28T02:59:15.775Z,99293.78
2022-12-28T03:01:54.805Z,99278.44
2022-12-28T03:04:56.628Z,99269.06
2022-12-28T03:07:57.154Z,99268.59
2022-12-28T03:10:33.035Z,99268.47
2022-12-28T03:13:33.006Z,99260.44
2022-12-28T03:16:05.103Z,99255.34
2022-12-28T03:18:51.344Z,99255.22
2022-12-28T03:21:37.869Z,99245.41
2022-12-28T03:24:24.225Z,99241.78
2022-12-28T03:27:10.796Z,99244.38
2022-12-28T03:30:00.210Z,99246.78
2022-12-28T03:32:27.027Z,99252.31
2022-12-28T03:34:54.003Z,99238.25
2022-12-28T03:37:39.140Z,99239.16
2022-12-28T03:40:29.692Z,99234.28
2022-12-28T03:43:19.736Z,99234.78
2022-12-28T03:45:47.481Z,99243.31
2022-12-28T03:48:15.805Z,99247.63
2022-12-28T03:50:44.697Z,99233.13
2022-12-28T03:53:11.839Z,99234.25
2022-12-28T03:55:38.750Z,99229.16
2022-12-28T03:58:06.239Z,99236.13
2022-12-28T04:00:33.539Z,99224.66
2022-12-28T04:03:00.383Z,99222.59
2022-12-28T04:05:27.466Z,99221.31
2022-12-28T04:07:54.174Z,99215.59
2022-12-28T04:10:20.873Z,99209.00
2022-12-28T04:12:47.775Z,99206.41
2022-12-28T04:15:14.670Z,99204.31
2022-12-28T04:17:41.645Z,99198.81
2022-12-28T04:20:09.355Z,99195.16
2022-12-28T04:22:36.074Z,99189.41
2022-12-28T04:25:03.709Z,99189.84
2022-12-28T04:27:30.478Z,99189.09
2022-12-28T04:29:57.159Z,99184.41
2022-12-28T04:32:23.871Z,99180.03
2022-12-28T04:34:50.584Z,99175.44
2022-12-28T04:37:17.356Z,99166.44
2022-12-28T04:39:55.173Z,99154.78
2022-12-28T04:42:25.509Z,99154.69
2022-12-28T04:44:52.277Z,99142.69
2022-12-28T04:47:19.179Z,99144.69
2022-12-28T04:49:45.912Z,99141.25
2022-12-28T04:52:12.859Z,99146.69
2022-12-28T04:54:39.685Z,99133.66
2022-12-28T04:57:07.076Z,99130.16
2022-12-28T04:59:34.105Z,99126.25
2022-12-28T05:02:01.169Z,99119.13
2022-12-28T05:04:28.127Z,99117.03
2022-12-28T05:06:54.771Z,99115.94
2022-12-28T05:09:21.657Z,99103.00
2022-12-28T05:11:48.927Z,99097.69
2022-12-28T05:14:16.059Z,99097.22
2022-12-28T05:16:43.022Z,99084.69
2022-12-28T05:19:09.822Z,99071.75
2022-12-28T05:21:36.699Z,99074.75
2022-12-28T05:24:03.685Z,99064.78
2022-12-28T05:26:30.452Z,99077.38
2022-12-28T05:28:59.129Z,99084.69
2022-12-28T05:31:26.491Z,99080.94
2022-12-28T05:33:54.368Z,99072.16
2022-12-28T05:36:23.667Z,99076.91
2022-12-28T05:38:51.058Z,99071.50
2022-12-28T05:41:23.783Z,99071.75
2022-12-28T05:43:50.685Z,99070.44
2022-12-28T05:46:24.439Z,99072.44
2022-12-28T05:48:51.429Z,99076.47
2022-12-28T05:51:20.356Z,99072.69
2022-12-28T05:53:47.436Z,99072.00
2022-12-28T05:56:16.039Z,99079.09
2022-12-28T05:58:43.961Z,99072.22
2022-12-28T06:01:16.404Z,99064.91
2022-12-28T06:03:44.790Z,99068.94
2022-12-28T06:06:14.329Z,99074.28
2022-12-28T06:08:42.538Z,99064.69
2022-12-28T06:11:12.244Z,99067.16
2022-12-28T06:13:39.497Z,99058.13
2022-12-28T06:16:18.029Z,99055.34
2022-12-28T06:18:45.463Z,99061.03
2022-12-28T06:21:14.623Z,99054.97
2022-12-28T06:23:42.231Z,99050.72
2022-12-28T06:26:09.610Z,99036.34
2022-12-28T06:28:40.386Z,99032.47
2022-12-28T06:31:15.770Z,99032.84
2022-12-28T06:33:43.029Z,99031.63
2022-12-28T06:36:20.527Z,99025.00
2022-12-28T06:38:49.204Z,99020.59
2022-12-28T06:41:17.695Z,99016.81
2022-12-28T06:43:45.741Z,99007.31
2022-12-28T06:46:13.675Z,98998.28
2022-12-28T06:48:40.836Z,99003.66
2022-12-28T06:51:12.200Z,98998.75
2022-12-28T06:53:39.291Z,99000.69
2022-12-28T06:56:11.726Z,98999.25
2022-12-28T06:58:38.750Z,98997.47
2022-12-28T07:01:07.655Z,98987.75
2022-12-28T07:03:34.940Z,98988.31
2022-12-28T07:06:02.565Z,98982.41
2022-12-28T07:08:29.889Z,98973.03
2022-12-28T07:11:02.440Z,98978.81
2022-12-28T07:13:29.257Z,98974.06
2022-12-28T07:15:55.896Z,98974.06
2022-12-28T07:18:22.720Z,98980.00
2022-12-28T07:20:49.419Z,98978.13
2022-12-28T07:23:16.295Z,98981.00
2022-12-28T07:25:43.665Z,98979.66
2022-12-28T07:28:10.379Z,98979.06
2022-12-28T07:30:37.374Z,98971.25
2022-12-28T07:33:04.781Z,98975.38
2022-12-28T07:35:31.561Z,98978.47
2022-12-28T07:37:58.302Z,98982.84
2022-12-28T07:40:25.029Z,98973.13
2022-12-28T07:42:51.956Z,98982.75
2022-12-28T07:45:18.688Z,98976.34
2022-12-28T07:47:45.450Z,98970.03
2022-12-28T07:50:12.401Z,98973.34
2022-12-28T07:52:39.247Z,98978.34
2022-12-28T07:55:06.568Z,98980.56
2022-12-28T07:57:34.485Z,98978.56
2022-12-28T08:00:01.184Z,98984.22
2022-12-28T08:02:28.075Z,98982.00
2022-12-28T08:04:54.907Z,98983.88
2022-12-28T08:07:21.614Z,98986.16
2022-12-28T08:09:48.418Z,98983.88
2022-12-28T08:12:15.051Z,98991.72
2022-12-28T08:14:42.621Z,98991.72
2022-12-28T08:17:09.388Z,98975.69
2022-12-28T08:19:36.103Z,98972.72
2022-12-28T08:22:02.890Z,98980.16
2022-12-28T08:24:29.614Z,98974.25
2022-12-28T08:26:56.382Z,98969.47
2022-12-28T08:29:23.427Z,98978.47
2022-12-28T08:31:50.480Z,98966.03
2022-12-28T08:34:20.365Z,98975.88
2022-12-28T08:36:47.244Z,98977.56
2022-12-28T08:39:14.870Z,98981.53
2022-12-28T08:41:41.982Z,98983.94
2022-12-28T08:44:08.776Z,98983.94
2022-12-28T08:46:36.539Z,98982.00
2022-12-28T08:49:04.144Z,98977.75
2022-12-28T08:51:33.003Z,98975.13
2022-12-28T08:54:00.738Z,98983.19
2022-12-28T08:56:30.231Z,98979.81
2022-12-28T08:58:57.783Z,98972.13
2022-12-28T09:01:27.108Z,98969.63
2022-12-28T09:03:56.320Z,98975.53
2022-12-28T09:06:31.893Z,98971.16
2022-12-28T09:09:07.298Z,98972.22
2022-12-28T09:11:39.444Z,98978.84
2022-12-28T09:14:09.607Z,98971.22
2022-12-28T09:16:37.209Z,98970.06
2022-12-28T09:19:05.897Z,98971.47
2022-12-28T09:21:35.492Z,98967.19
2022-12-28T09:24:02.321Z,98976.34
2022-12-28T09:26:32.051Z,98964.84
2022-12-28T09:29:01.190Z,98975.03
2022-12-28T09:31:30.167Z,98969.81
2022-12-28T09:36:49.991Z,98958.91
2022-12-28T09:39:19.540Z,98964.56
2022-12-28T09:41:58.331Z,98968.72
2022-12-28T09:45:04.350Z,98960.13
2022-12-28T09:47:47.577Z,98961.34
2022-12-28T09:50:28.657Z,98962.53
2022-12-28T09:53:24.694Z,98967.41
2022-12-28T09:55:54.389Z,98968.38
2022-12-28T09:58:21.318Z,98961.72
2022-12-28T10:00:50.204Z,98964.53
2022-12-28T10:03:32.326Z,98952.91
2022-12-28T10:05:59.842Z,98953.03
2022-12-28T10:08:28.260Z,98948.84
2022-12-28T10:10:57.536Z,98956.94
2022-12-28T10:13:53.725Z,98948.16
2022-12-28T10:16:19.384Z,98940.75
2022-12-28T10:18:47.131Z,98932.50
2022-12-28T10:21:19.710Z,98926.97
2022-12-28T10:24:29.336Z,98920.59
2022-12-28T10:26:35.585Z,98929.22
2022-12-28T10:29:02.538Z,98925.88
2022-12-28T10:31:37.709Z,98925.16
2022-12-28T10:34:18.138Z,98918.81
2022-12-28T10:36:45.069Z,98916.94
2022-12-28T10:39:24.562Z,98921.66
2022-12-28T10:41:51.903Z,98911.44
2022-12-28T10:44:40.319Z,98911.34
2022-12-28T10:47:18.137Z,98910.47
2022-12-28T10:50:18.546Z,98904.81
2022-12-28T10:52:38.040Z,98893.69
2022-12-28T10:55:31.742Z,98883.69
2022-12-28T10:58:30.110Z,98881.69
2022-12-28T11:01:05.226Z,98877.31
2022-12-28T11:03:38.684Z,98870.13
2022-12-28T11:06:19.922Z,98869.31
2022-12-28T11:09:20.317Z,98866.03
2022-12-28T11:11:48.402Z,98858.59
2022-12-28T11:14:30.831Z,98863.84
2022-12-28T11:16:57.989Z,98863.00
2022-12-28T11:19:25.910Z,98866.28
2022-12-28T11:21:53.295Z,98861.19
2022-12-28T11:24:21.460Z,98848.09
2022-12-28T11:26:50.090Z,98853.34
2022-12-28T11:29:18.560Z,98851.53
2022-12-28T11:32:07.373Z,98845.88
2022-12-28T11:34:34.313Z,98836.81
2022-12-28T11:37:01.219Z,98834.03
2022-12-28T11:39:32.661Z,98830.84
2022-12-28T11:42:37.328Z,98834.88
2022-12-28T11:44:49.253Z,98835.28
2022-12-28T11:47:36.616Z,98828.78
2022-12-28T11:50:35.212Z,98818.59
2022-12-28T11:53:02.779Z,98814.34
2022-12-28T11:55:56.313Z,98815.72
2022-12-28T11:58:29.063Z,98814.88
2022-12-28T12:00:57.228Z,98812.81
2022-12-28T12:04:06.343Z,98807.84
2022-12-28T12:07:30.648Z,98809.22
2022-12-28T12:10:35.580Z,98805.09
2022-12-28T12:13:23.806Z,98799.16
2022-12-28T12:15:51.457Z,98801.91
2022-12-28T12:18:23.866Z,98801.94
2022-12-28T12:21:03.588Z,98802.06
2022-12-28T12:23:55.672Z,98797.09
2022-12-28T12:26:59.069Z,98776.69
2022-12-28T12:29:37.540Z,98794.88
2022-12-28T12:32:07.893Z,98784.97
2022-12-28T12:34:42.908Z,98779.28
2022-12-28T12:37:37.945Z,98779.47
2022-12-28T12:40:31.972Z,98775.44
2022-12-28T12:43:22.257Z,98776.97
2022-12-28T12:46:00.662Z,98769.94
2022-12-28T12:48:51.555Z,98763.44
2022-12-28T12:51:33.687Z,98760.97
2022-12-28T12:54:23.582Z,98763.47
2022-12-28T12:56:55.746Z,98764.69
2022-12-28T12:59:41.195Z,98757.97
2022-12-28T13:02:59.659Z,98751.31
2022-12-28T13:05:28.726Z,98745.13
2022-12-28T13:07:58.364Z,98754.75
2022-12-28T13:10:45.790Z,98756.97
2022-12-28T13:13:36.127Z,98752.13
2022-12-28T13:16:05.703Z,98750.09
2022-12-28T13:18:47.856Z,98748.25
2022-12-28T13:21:20.668Z,98748.97
2022-12-28T13:23:55.582Z,98756.44
2022-12-28T13:26:30.072Z,98738.63
2022-12-28T13:29:02.760Z,98725.09
2022-12-28T13:31:37.767Z,98724.69
2022-12-28T13:34:14.314Z,98712.69
2022-12-28T13:36:59.470Z,98722.50
2022-12-28T13:39:33.168Z,98716.28
2022-12-28T13:42:14.342Z,98714.06
2022-12-28T13:45:02.146Z,98724.00
2022-12-28T13:47:33.502Z,98717.81
2022-12-28T13:50:07.443Z,98722.91
2022-12-28T13:53:12.789Z,98725.50
2022-12-28T13:56:01.162Z,98719.28
2022-12-28T13:58:32.193Z,98729.22
2022-12-28T14:01:00.791Z,98730.34
2022-12-28T14:03:27.850Z,98724.53
2022-12-28T14:06:00.313Z,98723.84
2022-12-28T14:08:28.825Z,98723.31
2022-12-28T14:10:55.964Z,98732.00
2022-12-28T14:13:23.065Z,98727.03
2022-12-28T14:15:50.258Z,98734.75
2022-12-28T14:18:17.727Z,98726.78
2022-12-28T14:20:52.143Z,98727.03
2022-12-28T14:23:29.993Z,98715.03
2022-12-28T14:25:58.886Z,98711.19
2022-12-28T14:28:46.076Z,98717.13
2022-12-28T14:31:14.795Z,98712.28
2022-12-28T14:34:02.260Z,98713.00
2022-12-28T14:36:43.194Z,98722.50
2022-12-28T14:39:32.692Z,98721.81
2022-12-28T14:42:05.692Z,98721.13
2022-12-28T14:44:37.600Z,98723.16
2022-12-28T14:47:56.777Z,98714.22
2022-12-28T14:50:26.137Z,98700.84
2022-12-28T14:53:09.934Z,98706.50
2022-12-28T14:55:57.043Z,98706.09
2022-12-28T14:58:27.067Z,98696.59
2022-12-28T15:01:06.332Z,98693.94
2022-12-28T15:03:58.165Z,98695.34
2022-12-28T15:06:30.088Z,98707.78
2022-12-28T15:08:59.094Z,98691.34
2022-12-28T15:11:27.884Z,98692.19
2022-12-28T15:13:54.765Z,98692.31
2022-12-28T15:16:25.530Z,98690.38
2022-12-28T15:18:53.562Z,98697.56
2022-12-28T15:21:22.832Z,98679.22
2022-12-28T15:23:53.730Z,98688.47
2022-12-28T15:26:23.846Z,98692.31
2022-12-28T15:28:51.187Z,98689.97
2022-12-28T15:31:20.117Z,98687.66
2022-12-28T15:33:47.791Z,98689.56
2022-12-28T15:36:17.949Z,98689.28
2022-12-28T15:38:46.627Z,98688.72
2022-12-28T15:41:32.160Z,98678.66
2022-12-28T15:44:02.128Z,98684.03
2022-12-28T15:46:28.928Z,98688.59
2022-12-28T15:48:55.741Z,98683.94
2022-12-28T15:51:22.614Z,98684.88
2022-12-28T15:53:49.658Z,98673.56
2022-12-28T15:56:24.537Z,98668.63
2022-12-28T15:58:56.036Z,98668.50
2022-12-28T16:01:27.208Z,98661.16
2022-12-28T16:03:55.618Z,98668.63
2022-12-28T16:06:23.540Z,98668.63
2022-12-28T16:08:56.479Z,98667.09
2022-12-28T16:11:24.447Z,98674.00
2022-12-28T16:13:56.543Z,98665.88
2022-12-28T16:16:24.477Z,98658.28
2022-12-28T16:18:54.820Z,98654.00
2022-12-28T16:21:21.758Z,98649.75
2022-12-28T16:23:48.617Z,98654.97
2022-12-28T16:26:15.589Z,98649.72
2022-12-28T16:28:42.326Z,98650.16
2022-12-28T16:31:21.297Z,98643.53
2022-12-28T16:33:48.115Z,98644.09
2022-12-28T16:36:16.658Z,98642.16
2022-12-28T16:38:43.360Z,98636.66
2022-12-28T16:41:10.337Z,98631.41
2022-12-28T16:43:37.360Z,98620.66
2022-12-28T16:46:08.584Z,98627.97
2022-12-28T16:48:35.748Z,98625.38
2022-12-28T16:51:02.520Z,98618.06
2022-12-28T16:53:29.982Z,98614.63
2022-12-28T16:56:00.280Z,98606.34
2022-12-28T16:58:27.903Z,98605.00
2022-12-28T17:00:54.700Z,98597.53
2022-12-28T17:03:21.469Z,98584.56
2022-12-28T17:05:52.214Z,98585.78
2022-12-28T17:08:19.456Z,98565.81
2022-12-28T17:10:46.394Z,98527.59
2022-12-28T17:13:13.230Z,98499.28
2022-12-28T17:15:41.272Z,98511.16
2022-12-28T17:18:08.542Z,98537.75
2022-12-28T17:20:38.830Z,98567.09
2022-12-28T17:23:06.656Z,98561.97
2022-12-28T17:25:37.268Z,98540.50
2022-12-28T17:28:04.303Z,98547.03
2022-12-28T17:30:31.200Z,98542.91
2022-12-28T17:32:58.357Z,98539.75
2022-12-28T17:35:25.183Z,98530.94
2022-12-28T17:37:52.033Z,98522.53
2022-12-28T17:40:21.187Z,98525.38
2022-12-28T17:42:48.191Z,98520.34
2022-12-28T17:45:15.107Z,98521.03
2022-12-28T17:47:41.735Z,98519.53
2022-12-28T17:50:09.390Z,98516.84
2022-12-28T17:52:36.241Z,98513.25
2022-12-28T17:55:04.210Z,98509.75
2022-12-28T17:57:38.456Z,98503.56
2022-12-28T18:00:07.300Z,98513.75
2022-12-28T18:02:34.187Z,98511.88
2022-12-28T18:05:01.105Z,98510.75
2022-12-28T18:07:27.789Z,98508.31
2022-12-28T18:09:54.615Z,98513.44
2022-12-28T18:12:21.564Z,98516.25
2022-12-28T18:14:48.316Z,98511.72
2022-12-28T18:17:17.789Z,98507.97
2022-12-28T18:19:50.563Z,98499.00
2022-12-28T18:22:17.223Z,98501.91
2022-12-28T18:24:44.059Z,98490.44
2022-12-28T18:27:10.744Z,98479.38
2022-12-28T18:29:37.826Z,98472.34
2022-12-28T18:32:04.751Z,98466.06
2022-12-28T18:34:31.533Z,98448.81
2022-12-28T18:36:58.719Z,98453.91
2022-12-28T18:39:25.493Z,98454.97
2022-12-28T18:41:52.207Z,98453.63
2022-12-28T18:44:19.148Z,98446.13
2022-12-28T18:46:45.884Z,98444.03
2022-12-28T18:49:12.799Z,98442.00
2022-12-28T18:51:39.553Z,98439.53
2022-12-28T18:54:06.320Z,98439.78
2022-12-28T18:56:33.033Z,98443.06
2022-12-28T18:58:59.789Z,98441.56
2022-12-28T19:04:16.233Z,98423.44
2022-12-28T19:06:43.395Z,98418.88
2022-12-28T19:09:10.926Z,98423.72
2022-12-28T19:11:39.037Z,98429.56
2022-12-28T19:14:07.712Z,98417.00
2022-12-28T19:16:34.965Z,98424.84
2022-12-28T19:19:01.764Z,98418.28
2022-12-28T19:21:33.733Z,98397.91
2022-12-28T19:24:10.761Z,98403.38
2022-12-28T19:26:37.489Z,98393.94
2022-12-28T19:29:05.177Z,98404.34
2022-12-28T19:31:34.060Z,98394.56
2022-12-28T19:34:01.131Z,98388.84
2022-12-28T19:36:31.885Z,98386.38
2022-12-28T19:38:58.640Z,98387.25
2022-12-28T19:41:25.437Z,98374.72
2022-12-28T19:43:52.274Z,98378.75
2022-12-28T19:46:35.597Z,98376.88
2022-12-28T19:49:04.217Z,98371.47
2022-12-28T19:51:32.351Z,98363.31
2022-12-28T19:54:00.618Z,98365.50
2022-12-28T19:56:27.470Z,98357.25
2022-12-28T19:58:58.076Z,98351.66
2022-12-28T20:01:30.354Z,98356.38
2022-12-28T20:03:57.484Z,98352.16
2022-12-28T20:06:27.420Z,98345.88
2022-12-28T20:08:56.861Z,98342.56
2022-12-28T20:11:23.647Z,98332.09
2022-12-28T20:14:04.461Z,98336.72
2022-12-28T20:16:33.488Z,98335.41
2022-12-28T20:19:01.973Z,98332.09
2022-12-28T20:21:29.052Z,98325.53
2022-12-28T20:23:55.887Z,98330.16
2022-12-28T20:26:25.053Z,98323.72
2022-12-28T20:28:52.155Z,98323.72
2022-12-28T20:31:19.701Z,98318.72
2022-12-28T20:33:46.817Z,98314.88
2022-12-28T20:36:16.226Z,98306.44
2022-12-28T20:38:43.637Z,98301.50
2022-12-28T20:41:38.894Z,98295.13
2022-12-28T20:44:10.259Z,98291.16
2022-12-28T20:46:38.092Z,98289.66
2022-12-28T20:49:05.715Z,98291.28
2022-12-28T20:51:32.530Z,98289.66
2022-12-28T20:53:59.517Z,98288.31
2022-12-28T20:56:26.263Z,98281.50
2022-12-28T20:58:53.311Z,98286.75
2022-12-28T21:01:20.560Z,98279.09
2022-12-28T21:03:47.820Z,98286.13
2022-12-28T21:06:14.826Z,98276.63
2022-12-28T21:08:41.491Z,98277.97
2022-12-28T21:11:08.460Z,98275.94
2022-12-28T21:13:38.093Z,98274.03
2022-12-28T21:16:08.276Z,98269.81
2022-12-28T21:18:35.862Z,98264.41
2022-12-28T21:21:03.210Z,98261.09
2022-12-28T21:23:30.715Z,98253.03
2022-12-28T21:26:02.531Z,98265.19
2022-12-28T21:28:29.793Z,98262.91
2022-12-28T21:31:01.600Z,98270.75
2022-12-28T21:33:28.261Z,98254.06
2022-12-28T21:36:05.860Z,98263.25
2022-12-28T21:38:33.349Z,98259.44
2022-12-28T21:41:02.009Z,98248.84
2022-12-28T21:43:30.253Z,98262.28
2022-12-28T21:46:02.738Z,98252.16
2022-12-28T21:48:33.922Z,98250.44
2022-12-28T21:51:31.543Z,98246.84
2022-12-28T21:53:59.562Z,98244.06
2022-12-28T21:56:26.249Z,98251.44
2022-12-28T21:58:53.196Z,98250.44
2022-12-28T22:01:39.310Z,98252.19
2022-12-28T22:04:26.969Z,98250.50
2022-12-28T22:06:54.103Z,98242.94
2022-12-28T22:09:39.501Z,98239.59
2022-12-28T22:12:24.984Z,98224.03
2022-12-28T22:15:12.787Z,98220.59
2022-12-28T22:17:39.590Z,98224.13
2022-12-28T22:20:10.072Z,98223.16
2022-12-28T22:22:36.873Z,98226.47
2022-12-28T22:25:03.881Z,98220.25
2022-12-28T22:27:34.079Z,98223.84
2022-12-28T22:30:00.838Z,98215.91
2022-12-28T22:32:27.972Z,98218.22
2022-12-28T22:34:54.729Z,98204.44
2022-12-28T22:37:21.456Z,98216.47
2022-12-28T22:39:48.406Z,98213.50
2022-12-28T22:42:15.991Z,98209.75
2022-12-28T22:44:42.910Z,98214.84
2022-12-28T22:47:09.694Z,98205.84
2022-12-28T22:49:36.414Z,98208.16
2022-12-28T22:52:03.491Z,98212.72
2022-12-28T22:54:30.660Z,98203.56
2022-12-28T22:56:57.336Z,98201.63
2022-12-28T22:59:24.163Z,98193.06
2022-12-28T23:01:52.928Z,98190.63
2022-12-28T23:04:20.315Z,98189.03
2022-12-28T23:06:47.158Z,98182.28
2022-12-28T23:09:14.172Z,98174.06
2022-12-28T23:11:41.032Z,98175.06
2022-12-28T23:14:33.112Z,98169.19
2022-12-28T23:17:00.575Z,98169.84
2022-12-28T23:19:46.651Z,98168.13
2022-12-28T23:22:35.966Z,98168.22
2022-12-28T23:25:22.923Z,98155.44
2022-12-28T23:27:49.829Z,98156.91
2022-12-28T23:30:19.692Z,98154.13
2022-12-28T23:32:51.289Z,98162.66
2022-12-28T23:35:20.108Z,98155.38
2022-12-28T23:37:46.957Z,98151.31
2022-12-28T23:40:15.897Z,98150.00
2022-12-28T23:42:43.772Z,98147.44
2022-12-28T23:45:14.218Z,98144.97
2022-12-28T23:47:42.176Z,98143.06
2022-12-28T23:50:09.745Z,98135.50
2022-12-28T23:52:36.775Z,98144.34
2022-12-28T23:55:03.850Z,98136.31
2022-12-28T23:57:32.020Z,98132.66
2022-12-28T23:59:58.829Z,98128.44
